Time;durP1;ratioP1;P1;durP2;ratioP2;P2;SDS_P1;SDS_P2;PMS_P1;PMS_P2;Temp;Humidity;BMP_temperature;BMP_pressure;BME280_temperature;BME280_humidity;BME280_pressure;Samples;Min_cycle;Max_cycle;Signal;HPM_P1;HPM_P2
2021/08/23 00:00:21;;;;;;;4.97;2.72;;;17.50;99.90;;;16.25;93.22;101499.06;2566641;30;138347;-40
2021/08/23 00:02:52;;;;;;;5.43;3.15;;;17.50;99.90;;;16.24;92.84;101494.63;2567444;30;137419;-41
2021/08/23 00:05:19;;;;;;;5.20;3.10;;;17.50;99.90;;;16.24;93.41;101496.53;2567092;30;138567;-41
2021/08/23 00:07:47;;;;;;;5.80;3.03;;;17.50;99.90;;;16.22;93.69;101496.78;2566504;30;137499;-41
2021/08/23 00:10:14;;;;;;;;;;;17.50;99.90;;;16.22;93.63;101494.03;2568262;30;138268;-41
2021/08/23 00:12:42;;;;;;;4.95;3.10;;;17.50;99.90;;;16.22;93.43;101491.28;2567543;30;137290;-42
2021/08/23 00:15:10;;;;;;;;;;;17.40;99.90;;;16.21;93.96;101486.84;2567568;30;138451;-41
2021/08/23 00:17:38;;;;;;;6.35;3.67;;;17.50;99.90;;;16.21;93.56;101497.88;2568329;30;137826;-40
2021/08/23 00:20:06;;;;;;;7.30;4.05;;;17.40;99.90;;;16.21;93.76;101500.63;2569499;30;137287;-41
2021/08/23 00:22:47;;;;;;;6.25;3.67;;;17.40;99.90;;;16.22;93.98;101505.03;2569592;30;136728;-40
2021/08/23 00:25:16;;;;;;;5.50;4.00;;;17.50;99.90;;;16.24;93.48;101502.91;2565584;30;138504;-40
2021/08/23 00:27:47;;;;;;;5.68;3.72;;;17.50;99.90;;;16.24;93.13;101502.91;2568401;30;136881;-41
2021/08/23 00:30:19;;;;;;;5.07;3.70;;;17.50;99.90;;;16.25;93.33;101492.72;2568395;30;139045;-43
2021/08/23 00:32:46;;;;;;;5.72;3.90;;;17.50;99.90;;;16.24;94.15;101494.63;2567891;30;137441;-41
2021/08/23 00:35:14;;;;;;;6.43;4.20;;;17.50;99.90;;;16.24;94.14;101496.53;2567358;30;139445;-41
2021/08/23 00:37:41;;;;;;;;;;;17.50;99.90;;;16.19;93.73;101502.78;2569315;30;137501;-41
2021/08/23 00:40:14;;;;;;;7.22;4.30;;;17.40;99.90;;;16.16;93.80;101494.94;2569079;30;138358;-44
2021/08/23 00:42:41;;;;;;;;;;;17.40;99.90;;;16.15;94.18;101485.00;2568757;30;137197;-40
2021/08/23 00:45:09;;;;;;;6.72;4.13;;;17.40;99.90;;;16.12;93.83;101487.41;2568172;30;138617;-41
2021/08/23 00:47:36;;;;;;;4.53;3.30;;;17.40;99.90;;;16.08;94.43;101489.78;2566304;30;137084;-41
2021/08/23 00:50:04;;;;;;;6.40;4.22;;;17.30;99.90;;;16.03;93.88;101498.72;2567639;30;138306;-41
2021/08/23 00:52:34;;;;;;;5.68;3.83;;;17.30;99.90;;;15.99;94.67;101497.53;2566483;30;137257;-41
2021/08/23 00:55:03;;;;;;;7.57;4.43;;;17.20;99.90;;;15.98;94.18;101500.53;2565603;30;139579;-40
2021/08/23 00:57:36;;;;;;;8.10;4.60;;;17.20;99.90;;;15.95;94.59;101496.31;2568013;30;138142;-41
2021/08/23 01:00:06;;;;;;;7.05;4.40;;;17.20;99.90;;;15.92;94.61;101500.38;2568778;30;138896;-41
2021/08/23 01:02:44;;;;;;;6.45;4.25;;;17.20;99.90;;;15.90;94.99;101499.75;2568298;30;137592;-41
2021/08/23 01:05:24;;;;;;;6.65;4.20;;;17.20;99.90;;;15.87;95.61;101496.59;2565466;30;139026;-41
2021/08/23 01:08:03;;;;;;;8.63;5.40;;;17.10;99.90;;;15.91;95.20;101506.09;2568929;30;136832;-41
2021/08/23 01:10:34;;;;;;;;;;;17.20;99.90;;;15.93;95.77;101502.06;2569309;30;138368;-40
2021/08/23 01:13:04;;;;;;;7.30;5.55;;;17.20;99.90;;;15.94;95.51;101509.25;2566492;30;136837;-41
2021/08/23 01:15:38;;;;;;;8.13;5.03;;;17.20;99.90;;;15.96;96.09;101507.09;2566151;30;139215;-41
2021/08/23 01:18:06;;;;;;;7.95;5.80;;;17.20;99.90;;;16.01;96.24;101511.06;2569162;30;137068;-41
2021/08/23 01:20:42;;;;;;;9.82;5.72;;;17.20;99.90;;;16.01;96.18;101505.56;2568689;30;137122;-42
2021/08/23 01:23:12;;;;;;;8.93;5.32;;;17.20;99.90;;;16.00;96.16;101520.38;2566283;30;137414;-40
2021/08/23 01:25:43;;;;;;;7.35;5.38;;;17.20;99.90;;;15.99;96.34;101515.97;2568728;30;137335;-44
2021/08/23 01:29:06;;;;;;;8.65;5.43;;;17.20;99.90;;;15.97;96.60;101524.44;2568436;30;138268;-41
2021/08/23 01:32:01;;;;;;;10.32;6.43;;;17.20;99.90;;;15.95;96.11;101524.69;2566685;30;138308;-41
2021/08/23 01:34:28;;;;;;;9.30;6.43;;;17.20;99.90;;;15.93;96.21;101521.31;2567502;30;137706;-41
2021/08/23 01:36:56;;;;;;;10.93;6.72;;;17.20;99.90;;;15.90;96.46;101519.00;2568963;30;137601;-41
2021/08/23 01:39:23;;;;;;;10.45;5.70;;;17.20;99.90;;;15.84;96.02;101522.66;2568967;30;137414;-40
2021/08/23 01:41:51;;;;;;;9.65;6.53;;;17.10;99.90;;;15.79;96.36;101525.28;2568357;30;138904;-41
2021/08/23 01:44:18;;;;;;;8.27;5.75;;;17.10;99.90;;;15.72;95.88;101517.09;2567879;30;136750;-42
2021/08/23 01:46:46;;;;;;;8.55;6.30;;;17.00;99.90;;;15.64;96.28;101523.72;2567561;30;138346;-41
2021/08/23 01:49:13;;;;;;;8.07;5.93;;;17.00;99.90;;;15.58;96.00;101529.34;2569121;30;137644;-41
2021/08/23 01:51:41;;;;;;;10.10;6.18;;;16.90;99.90;;;15.49;96.12;101524.13;2569812;30;138568;-41
2021/08/23 01:54:08;;;;;;;8.50;5.82;;;16.80;99.90;;;15.45;95.76;101527.56;2567348;30;136998;-41
2021/08/23 01:56:36;;;;;;;8.35;5.85;;;16.80;99.90;;;15.37;95.96;101523.19;2568406;30;139354;-41
2021/08/23 01:59:04;;;;;;;7.80;5.40;;;16.70;99.90;;;15.28;95.54;101525.41;2568527;30;137635;-41
2021/08/23 02:01:34;;;;;;;9.18;6.22;;;16.60;99.90;;;15.21;95.70;101519.97;2568301;30;137873;-41
2021/08/23 02:04:02;;;;;;;6.78;4.88;;;16.60;99.90;;;15.15;95.35;101525.56;2567650;30;137949;-41
2021/08/23 02:06:31;;;;;;;10.77;5.68;;;16.50;99.90;;;15.13;95.12;101530.44;2568803;30;138890;-41
2021/08/23 02:08:58;;;;;;;9.25;5.70;;;16.50;99.90;;;15.03;95.90;101528.19;2567579;30;137225;-41
2021/08/23 02:11:26;;;;;;;7.93;4.88;;;16.40;99.90;;;14.98;95.64;101531.59;2566511;30;139007;-41
2021/08/23 02:13:54;;;;;;;7.60;5.40;;;16.30;99.90;;;14.88;95.17;101531.28;2564381;30;137286;-41
2021/08/23 02:16:22;;;;;;;8.00;5.22;;;16.20;99.90;;;14.78;94.81;101535.34;2567509;30;138700;-44
2021/08/23 02:18:50;;;;;;;7.60;5.00;;;16.10;99.90;;;14.68;95.10;101541.31;2567882;30;136885;-43
2021/08/23 02:21:21;;;;;;;6.95;4.93;;;16.10;99.90;;;14.61;95.12;101539.69;2568579;30;138877;-41
2021/08/23 02:23:51;;;;;;;6.85;4.65;;;16.00;99.90;;;14.53;94.95;101543.56;2567279;30;137814;-41
2021/08/23 02:26:19;;;;;;;7.35;4.75;;;15.90;99.90;;;14.45;94.79;101550.13;2567897;30;140420;-41
2021/08/23 02:28:46;;;;;;;7.78;4.72;;;15.80;99.90;;;14.41;94.80;101551.66;2567378;30;138267;-42
2021/08/23 02:31:14;;;;;;;9.25;5.78;;;15.80;99.90;;;14.38;94.66;101557.59;2568405;30;138064;-41
2021/08/23 02:33:42;;;;;;;8.38;5.78;;;15.80;99.90;;;14.36;95.29;101567.94;2568639;30;137453;-41
2021/08/23 02:36:09;;;;;;;7.97;5.50;;;15.70;99.90;;;14.36;96.20;101567.94;2569419;30;137175;-41
2021/08/23 02:38:36;;;;;;;7.78;5.30;;;15.70;99.90;;;14.30;96.04;101568.78;2565600;30;137343;-40
2021/08/23 02:41:04;;;;;;;8.18;5.30;;;15.70;99.90;;;14.24;95.58;101573.28;2567518;30;138202;-42
2021/08/23 02:43:31;;;;;;;8.43;5.30;;;15.60;99.90;;;14.19;95.55;101573.06;2567533;30;137470;-40
2021/08/23 02:45:59;;;;;;;9.18;5.82;;;15.60;99.90;;;14.13;95.48;101573.94;2567916;30;139016;-41
2021/08/23 02:48:26;;;;;;;8.80;5.22;;;15.50;99.90;;;14.05;95.33;101583.25;2566489;30;137650;-40
2021/08/23 02:50:53;;;;;;;7.88;5.28;;;15.40;99.90;;;14.00;95.36;101583.94;2569027;30;137478;-41
2021/08/23 02:53:21;;;;;;;7.32;4.70;;;15.40;99.90;;;13.94;95.08;101582.06;2575900;30;138152;-38
2021/08/23 02:55:48;;;;;;;6.47;4.95;;;15.40;99.90;;;13.93;95.61;101589.44;2567509;30;137463;-39
2021/08/23 02:58:16;;;;;;;7.47;4.90;;;15.30;99.90;;;13.92;95.19;101592.38;2568738;30;137428;-39
2021/08/23 03:00:43;;;;;;;8.05;4.88;;;15.30;99.90;;;13.89;95.83;101596.41;2570054;30;138420;-39
2021/08/23 03:03:12;;;;;;;7.10;4.70;;;15.30;99.90;;;13.87;95.56;101598.53;2570458;30;136759;-39
2021/08/23 03:05:39;;;;;;;8.90;5.55;;;15.30;99.90;;;13.84;96.32;101596.22;2569223;30;137635;-39
2021/08/23 03:08:07;;;;;;;8.60;6.07;;;15.20;99.90;;;13.84;96.10;101598.13;2569331;30;138187;-39
2021/08/23 03:10:35;;;;;;;6.68;4.90;;;15.20;99.90;;;13.82;96.00;101595.59;2569301;30;139252;-39
2021/08/23 03:13:09;;;;;;;7.20;4.70;;;15.20;99.90;;;13.78;96.08;101599.81;2569148;30;138531;-39
2021/08/23 03:15:37;;;;;;;7.32;5.03;;;15.20;99.90;;;13.80;96.06;101605.94;2568040;30;137470;-39
2021/08/23 03:18:04;;;;;;;6.53;4.80;;;15.20;99.90;;;13.84;96.80;101609.94;2570422;30;137130;-39
2021/08/23 03:20:31;;;;;;;7.85;5.13;;;15.20;99.90;;;13.90;97.11;101605.47;2565959;30;138721;-40
2021/08/23 03:22:59;;;;;;;10.15;6.82;;;15.20;99.90;;;13.98;98.17;101610.75;2568062;30;137047;-39
2021/08/23 03:25:26;;;;;;;10.60;7.28;;;15.30;99.90;;;14.10;99.11;101621.88;2569607;30;138823;-39
2021/08/23 03:27:54;;;;;;;14.45;8.52;;;15.30;99.90;;;14.21;100.00;101621.19;2569297;30;137557;-39
2021/08/23 03:30:22;;;;;;;11.65;8.13;;;15.50;99.90;;;14.29;100.00;101616.50;2569263;30;138108;-39
2021/08/23 03:32:49;;;;;;;12.20;8.05;;;15.60;99.90;;;14.39;100.00;101622.41;2570352;30;137795;-39
2021/08/23 03:35:17;;;;;;;15.75;9.02;;;15.60;99.90;;;14.49;100.00;101622.75;2568388;30;138844;-39
2021/08/23 03:37:44;;;;;;;13.27;9.05;;;15.70;99.90;;;14.58;100.00;101625.25;2569294;30;137056;-39
2021/08/23 03:40:12;;;;;;;14.05;8.85;;;15.80;99.90;;;14.65;100.00;101624.16;2568604;30;138359;-39
2021/08/23 03:42:40;;;;;;;13.43;8.48;;;15.90;99.90;;;14.69;100.00;101619.06;2568372;30;137514;-40
2021/08/23 03:45:08;;;;;;;13.38;8.32;;;16.00;99.90;;;14.73;100.00;101623.09;2568564;30;138387;-40
2021/08/23 03:47:36;;;;;;;13.18;9.27;;;16.00;99.90;;;14.78;100.00;101619.69;2569205;30;136712;-39
2021/08/23 03:50:04;;;;;;;16.23;9.63;;;16.00;99.90;;;14.81;100.00;101622.81;2569813;30;138252;-40
2021/08/23 03:52:32;;;;;;;13.43;9.32;;;16.10;99.90;;;14.85;100.00;101619.59;2568067;30;137155;-39
2021/08/23 03:55:02;;;;;;;13.80;9.30;;;16.10;99.90;;;14.90;100.00;101617.06;2568123;30;137500;-39
2021/08/23 03:57:34;;;;;;;18.85;9.93;;;16.20;99.90;;;14.95;100.00;101619.97;2567031;30;136954;-39
2021/08/23 04:00:07;;;;;;;14.55;8.63;;;16.20;99.90;;;14.93;100.00;101613.88;2568442;30;137509;-39
2021/08/23 04:02:36;;;;;;;15.05;8.93;;;16.30;99.90;;;15.00;100.00;101628.38;2568674;30;137450;-39
2021/08/23 04:05:04;;;;;;;14.52;9.90;;;16.30;99.90;;;15.11;100.00;101624.09;2567631;30;138165;-39
2021/08/23 04:07:32;;;;;;;14.18;9.60;;;16.30;99.90;;;15.15;100.00;101629.97;2566212;30;137446;-39
2021/08/23 04:10:00;;;;;;;14.82;9.75;;;16.40;99.90;;;15.18;100.00;101624.03;2569707;30;138532;-39
2021/08/23 04:12:28;;;;;;;15.15;8.77;;;16.50;99.90;;;15.16;100.00;101629.75;2572411;30;137344;-40
2021/08/23 04:14:55;;;;;;;12.05;9.05;;;16.40;99.90;;;15.15;100.00;101636.31;2570535;30;138335;-39
2021/08/23 04:17:23;;;;;;;11.27;7.82;;;16.40;99.90;;;15.12;100.00;101631.25;2568395;30;136917;-39
2021/08/23 04:19:50;;;;;;;14.27;8.95;;;16.40;99.90;;;15.12;100.00;101631.25;2569116;30;137301;-41
2021/08/23 04:22:18;;;;;;;12.48;8.32;;;16.40;99.90;;;15.10;100.00;101631.47;2568890;30;137869;-39
2021/08/23 04:24:45;;;;;;;12.68;8.63;;;16.40;99.90;;;15.04;100.00;101635.13;2568955;30;138524;-39
2021/08/23 04:27:13;;;;;;;12.52;7.80;;;16.40;99.90;;;15.01;100.00;101635.56;2568676;30;137046;-40
2021/08/23 04:29:40;;;;;;;10.00;7.40;;;16.30;99.90;;;14.98;100.00;101649.75;2568336;30;138154;-39
2021/08/23 04:32:09;;;;;;;10.60;7.65;;;16.30;99.90;;;14.94;100.00;101656.75;2566557;30;137402;-39
2021/08/23 04:34:36;;;;;;;10.73;7.20;;;16.30;99.90;;;14.93;100.00;101660.56;2568723;30;137495;-39
2021/08/23 04:37:04;;;;;;;10.93;7.70;;;16.20;99.90;;;14.93;100.00;101663.31;2569388;30;138249;-39
2021/08/23 04:39:33;;;;;;;11.05;7.75;;;16.20;99.90;;;14.93;100.00;101661.41;2570666;30;137690;-39
2021/08/23 04:42:01;;;;;;;12.95;7.57;;;16.20;99.90;;;14.95;100.00;101663.94;2569004;30;138106;-39
2021/08/23 04:44:29;;;;;;;11.02;7.45;;;16.20;99.90;;;14.96;100.00;101671.13;2568776;30;137804;-39
2021/08/23 04:46:56;;;;;;;11.30;7.63;;;16.30;99.90;;;14.96;100.00;101677.44;2567726;30;137839;-39
2021/08/23 04:49:24;;;;;;;11.02;7.78;;;16.30;99.90;;;14.99;100.00;101676.16;2568553;30;138373;-39
2021/08/23 04:51:52;;;;;;;12.32;7.43;;;16.30;99.90;;;15.00;100.00;101672.34;2568746;30;136927;-39
2021/08/23 04:54:19;;;;;;;11.00;7.10;;;16.30;99.90;;;15.02;100.00;101680.38;2567600;30;138083;-39
2021/08/23 04:56:48;;;;;;;11.20;7.32;;;16.30;99.90;;;15.04;100.00;101681.00;2569019;30;136891;-40
2021/08/23 04:59:16;;;;;;;11.27;7.00;;;16.30;99.90;;;15.07;100.00;101683.31;2567620;30;138937;-39
2021/08/23 05:01:43;;;;;;;11.82;7.30;;;16.30;99.90;;;15.12;100.00;101685.38;2569580;30;137557;-39
2021/08/23 05:04:11;;;;;;;;;;;16.40;99.90;;;15.17;100.00;101696.56;2570443;30;137277;-39
2021/08/23 05:06:39;;;;;;;11.23;7.35;;;16.40;99.90;;;15.21;100.00;101690.38;2567602;30;136996;-39
2021/08/23 05:09:06;;;;;;;11.55;7.68;;;16.40;99.90;;;15.25;100.00;101696.28;2570013;30;137066;-39
2021/08/23 05:11:36;;;;;;;11.23;7.43;;;16.50;99.90;;;15.29;100.00;101693.94;2570099;30;137680;-39
2021/08/23 05:14:05;;;;;;;10.15;7.13;;;16.60;99.90;;;15.32;100.00;101699.00;2566596;30;138558;-38
2021/08/23 05:16:33;;;;;;;12.48;8.05;;;16.60;99.90;;;15.35;100.00;101696.63;2570185;30;138327;-39
2021/08/23 05:19:00;;;;;;;12.30;8.15;;;16.60;99.90;;;15.38;100.00;101701.69;2570393;30;136908;-39
2021/08/23 05:21:28;;;;;;;12.23;7.90;;;16.60;99.90;;;15.41;100.00;101694.88;2569195;30;137436;-39
2021/08/23 05:23:57;;;;;;;10.82;7.95;;;16.60;99.90;;;15.45;100.00;101698.03;2569916;30;137181;-38
2021/08/23 05:26:24;;;;;;;13.50;9.02;;;16.70;99.90;;;15.48;100.00;101703.09;2571026;30;136987;-39
2021/08/23 05:28:52;;;;;;;12.27;8.35;;;16.70;99.90;;;15.52;100.00;101701.56;2572002;30;138167;-40
2021/08/23 05:31:21;;;;;;;13.13;9.10;;;16.80;99.90;;;15.56;100.00;101701.97;2571213;30;136890;-39
2021/08/23 05:33:50;;;;;;;13.23;8.45;;;16.80;99.90;;;15.59;100.00;101705.09;2570107;30;138901;-39
2021/08/23 05:36:17;;;;;;;14.15;9.05;;;16.80;99.90;;;15.63;100.00;101705.50;2569935;30;137064;-39
2021/08/23 05:38:45;;;;;;;11.82;8.50;;;16.80;99.90;;;15.65;100.00;101704.22;2567514;30;138523;-39
2021/08/23 05:41:12;;;;;;;13.63;9.45;;;16.90;99.90;;;15.67;100.00;101710.34;2570380;30;137035;-39
2021/08/23 05:43:40;;;;;;;12.90;8.20;;;16.90;99.90;;;15.71;100.00;101710.72;2569842;30;137309;-40
2021/08/23 05:46:09;;;;;;;12.80;8.40;;;16.90;99.90;;;15.74;100.00;101713.00;2567346;30;137221;-39
2021/08/23 05:48:37;;;;;;;12.68;8.77;;;16.90;99.90;;;15.80;100.00;101719.53;2571556;30;137241;-39
2021/08/23 05:51:05;;;;;;;13.43;9.70;;;17.00;99.90;;;15.84;100.00;101718.00;2568494;30;138098;-40
2021/08/23 05:53:32;;;;;;;15.98;11.10;;;17.10;99.90;;;15.89;100.00;101718.19;2568493;30;138306;-39
2021/08/23 05:56:00;;;;;;;17.52;12.00;;;17.10;99.90;;;15.96;100.00;101719.00;2570965;30;136967;-39
2021/08/23 05:58:28;;;;;;;17.58;11.75;;;17.20;99.90;;;15.97;100.00;101717.06;2565427;30;137259;-39
2021/08/23 06:00:55;;;;;;;21.10;13.15;;;17.20;99.90;;;16.02;100.00;101724.66;2569343;30;137703;-39
2021/08/23 06:03:23;;;;;;;22.73;13.90;;;17.20;99.90;;;16.08;99.88;101726.47;2568461;30;137412;-40
2021/08/23 06:05:50;;;;;;;23.90;13.93;;;17.30;99.90;;;16.19;99.59;101728.50;2569338;30;136900;-39
2021/08/23 06:08:18;;;;;;;24.67;15.15;;;17.30;99.90;;;16.27;99.30;101732.84;2568743;30;139248;-39
2021/08/23 06:10:47;;;;;;;25.55;15.38;;;17.40;99.90;;;16.41;99.69;101730.78;2571131;30;137495;-39
2021/08/23 06:13:15;;;;;;;25.50;16.15;;;17.50;99.90;;;16.50;99.18;101734.91;2568212;30;137854;-39
2021/08/23 06:15:43;;;;;;;28.88;18.02;;;17.60;99.90;;;16.63;97.78;101733.06;2569553;30;137325;-39
2021/08/23 06:18:10;;;;;;;;;;;17.70;99.90;;;16.62;97.14;101739.66;2569605;30;137669;-39
2021/08/23 06:20:37;;;;;;;29.17;16.70;;;17.80;99.90;;;16.67;97.74;101726.88;2569450;30;137903;-39
2021/08/23 06:23:05;;;;;;;31.85;19.77;;;17.80;99.90;;;16.65;96.64;101736.41;2566974;30;138204;-39
2021/08/23 06:25:33;;;;;;;;;;;17.80;99.90;;;16.66;96.20;101743.63;2569877;30;137338;-39
2021/08/23 06:28:00;;;;;;;27.75;17.00;;;17.80;99.90;;;16.72;97.00;101753.72;2569807;30;137887;-39
2021/08/23 06:30:28;;;;;;;29.95;17.77;;;17.80;99.90;;;16.78;96.65;101749.19;2569367;30;137110;-39
2021/08/23 06:32:55;;;;;;;27.33;16.58;;;17.90;99.90;;;16.80;96.87;101752.56;2570649;30;137406;-40
2021/08/23 06:35:23;;;;;;;32.45;19.70;;;17.90;99.90;;;16.79;94.91;101759.13;2568698;30;138596;-39
2021/08/23 06:37:50;;;;;;;29.50;18.65;;;17.90;99.90;;;16.80;94.17;101758.91;2569985;30;137152;-39
2021/08/23 06:40:18;;;;;;;29.20;18.80;;;17.90;99.90;;;16.88;94.58;101757.75;2569468;30;136770;-39
2021/08/23 06:42:46;;;;;;;30.05;19.15;;;18.00;99.90;;;16.93;94.47;101765.31;2568862;30;138383;-39
2021/08/23 06:45:14;;;;;;;29.33;18.67;;;18.00;99.90;;;17.01;94.99;101762.28;2569489;30;138066;-39
2021/08/23 06:47:41;;;;;;;31.08;19.27;;;18.10;99.90;;;17.04;94.49;101761.81;2570915;30;138067;-39
2021/08/23 06:50:09;;;;;;;31.90;20.05;;;18.20;99.90;;;17.02;93.22;101763.13;2569544;30;136907;-39
2021/08/23 06:52:39;;;;;;;34.20;21.02;;;18.20;99.90;;;17.04;93.41;101775.59;2568767;30;138080;-39
2021/08/23 06:55:07;;;;;;;36.80;22.52;;;18.10;99.90;;;17.02;92.27;101771.38;2569546;30;137467;-39
2021/08/23 06:57:35;;;;;;;32.95;21.08;;;18.20;99.90;;;17.12;92.98;101771.69;2569799;30;137225;-39
2021/08/23 07:00:04;;;;;;;33.90;20.42;;;18.20;99.90;;;17.23;93.08;101775.53;2569370;30;137623;-39
2021/08/23 07:02:32;;;;;;;35.55;22.40;;;18.30;99.90;;;17.27;93.46;101774.00;2568126;30;138318;-39
2021/08/23 07:05:00;;;;;;;;;;;18.40;99.90;;;17.27;91.06;101775.91;2569038;30;137461;-39
2021/08/23 07:07:29;;;;;;;34.00;20.88;;;18.40;99.90;;;17.34;90.88;101774.75;2569656;30;139130;-39
2021/08/23 07:09:56;;;;;;;34.10;21.35;;;18.40;99.90;;;17.36;89.76;101775.34;2568704;30;136812;-39
2021/08/23 07:12:24;;;;;;;41.97;21.75;;;18.40;99.90;;;17.50;90.55;101791.69;2568496;30;136910;-40
2021/08/23 07:14:52;;;;;;;;;;;18.50;99.90;;;17.46;89.20;101785.81;2567974;30;136903;-39
2021/08/23 07:17:20;;;;;;;40.85;23.75;;;18.50;99.90;;;17.42;88.58;101789.28;2567049;30;137896;-39
2021/08/23 07:19:47;;;;;;;45.75;23.33;;;18.50;99.90;;;17.46;90.11;101790.47;2568249;30;137900;-39
2021/08/23 07:22:23;;;;;;;40.60;22.55;;;18.50;99.90;;;17.42;89.91;101789.28;2568859;30;137877;-39
2021/08/23 07:24:51;;;;;;;37.42;21.40;;;18.60;99.90;;;17.35;89.57;101787.47;2569255;30;137454;-39
2021/08/23 07:27:19;;;;;;;37.22;22.13;;;18.50;99.90;;;17.25;88.71;101789.97;2568672;30;137477;-39
2021/08/23 07:29:47;;;;;;;37.35;22.02;;;18.40;99.90;;;17.24;89.43;101791.03;2568525;30;137513;-39
2021/08/23 07:32:15;;;;;;;34.97;21.17;;;18.40;99.90;;;17.15;89.40;101795.16;2569564;30;138314;-39
2021/08/23 07:34:44;;;;;;;33.05;20.15;;;18.30;99.90;;;17.16;90.19;101792.19;2569098;30;137073;-39
2021/08/23 07:37:14;;;;;;;30.10;18.67;;;18.30;99.90;;;17.15;91.27;101787.75;2566201;30;137354;-39
2021/08/23 07:39:43;;;;;;;27.33;16.98;;;18.30;99.90;;;17.27;90.56;101790.56;2568885;30;138312;-39
2021/08/23 07:42:13;;;;;;;25.80;16.42;;;18.40;99.90;;;17.29;89.86;101788.41;2567388;30;138487;-39
2021/08/23 07:44:41;;;;;;;25.02;16.25;;;18.40;99.90;;;17.42;90.51;101794.78;2568806;30;137414;-39
2021/08/23 07:47:09;;;;;;;24.88;15.80;;;18.40;99.90;;;17.54;89.56;101799.25;2569043;30;137684;-39
2021/08/23 07:49:37;;;;;;;24.73;15.40;;;18.60;99.90;;;17.66;89.09;101795.72;2569869;30;137018;-39
2021/08/23 07:52:05;;;;;;;21.30;13.85;;;18.70;99.90;;;17.74;87.65;101797.25;2570311;30;137048;-39
2021/08/23 07:54:35;;;;;;;21.08;13.75;;;18.70;99.90;;;17.76;87.98;101793.19;2568664;30;137103;-39
2021/08/23 07:57:05;;;;;;;22.13;14.38;;;18.80;99.90;;;17.72;86.74;101797.50;2570555;30;138606;-39
2021/08/23 07:59:32;;;;;;;21.13;12.55;;;18.80;99.90;;;17.66;87.32;101804.81;2569416;30;137474;-39
2021/08/23 08:02:00;;;;;;;17.20;11.93;;;18.80;99.90;;;17.63;88.20;101797.00;2568222;30;138331;-39
2021/08/23 08:04:28;;;;;;;17.38;11.95;;;18.80;99.90;;;17.63;89.42;101799.78;2566397;30;137313;-41
2021/08/23 08:06:56;;;;;;;18.30;11.63;;;18.70;99.90;;;17.60;88.66;101810.44;2569754;30;138123;-39
2021/08/23 08:09:24;;;;;;;15.85;11.23;;;18.80;99.90;;;17.52;88.73;101811.63;2568727;30;137364;-39
2021/08/23 08:11:52;;;;;;;16.25;10.75;;;18.70;99.90;;;17.45;89.58;101821.91;2568303;30;138328;-39
2021/08/23 08:14:19;;;;;;;15.15;10.52;;;18.60;99.90;;;17.46;89.40;101818.91;2569589;30;136737;-39
2021/08/23 08:16:47;;;;;;;16.90;10.27;;;18.60;99.90;;;17.40;88.72;101820.69;2570076;30;139051;-39
2021/08/23 08:19:14;;;;;;;17.35;10.88;;;18.60;99.90;;;17.32;89.23;101823.78;2569205;30;136887;-39
2021/08/23 08:21:42;;;;;;;18.67;11.70;;;18.50;99.90;;;17.23;89.54;101814.13;2569181;30;138176;-39
2021/08/23 08:24:09;;;;;;;19.35;11.85;;;18.50;99.90;;;17.25;89.26;101828.56;2568732;30;138244;-39
2021/08/23 08:26:37;;;;;;;16.63;11.25;;;18.40;99.90;;;17.37;91.89;101825.81;2568916;30;138765;-39
2021/08/23 08:29:05;;;;;;;17.38;11.60;;;18.50;99.90;;;17.50;91.55;101831.16;2569541;30;138361;-39
2021/08/23 08:31:32;;;;;;;15.38;11.15;;;18.60;99.90;;;17.39;88.25;101845.75;2568523;30;138181;-39
2021/08/23 08:34:00;;;;;;;;;;;18.50;99.90;;;17.40;88.57;101844.69;2569094;30;137509;-39
2021/08/23 08:36:29;;;;;;;14.25;9.57;;;18.60;99.90;;;17.42;88.76;101850.81;2568147;30;138533;-39
2021/08/23 08:38:56;;;;;;;13.68;9.55;;;18.50;99.90;;;17.48;87.11;101849.00;2567349;30;137041;-39
2021/08/23 08:41:24;;;;;;;14.70;10.13;;;18.50;99.90;;;17.55;87.51;101849.78;2568614;30;139174;-39
2021/08/23 08:43:52;;;;;;;;;;;18.60;99.90;;;17.63;87.37;101851.34;2569372;30;137629;-39
2021/08/23 08:46:20;;;;;;;16.67;11.50;;;18.70;99.90;;;17.66;86.21;101857.25;2568719;30;138310;-39
2021/08/23 08:48:47;;;;;;;;;;;18.70;99.90;;;17.71;84.80;101847.41;2569600;30;137414;-39
2021/08/23 08:51:15;;;;;;;16.23;11.35;;;18.80;99.90;;;17.80;86.33;101862.56;2568683;30;138150;-39
2021/08/23 08:56:12;;;;;;;19.33;13.77;;;18.80;99.90;;;17.86;86.14;101867.13;2569314;30;138287;-41
2021/08/23 08:58:39;;;;;;;17.02;13.10;;;18.90;99.90;;;17.85;84.17;101868.22;2568433;30;136651;-41
2021/08/23 09:01:07;;;;;;;17.65;13.60;;;18.90;99.90;;;17.97;84.85;101866.31;2567718;30;138971;-42
2021/08/23 09:03:34;;;;;;;;;;;19.00;99.90;;;18.08;82.58;101872.13;2568185;30;137492;-41
2021/08/23 09:06:07;;;;;;;18.38;13.77;;;19.10;99.90;;;18.10;81.52;101878.25;2567407;30;137195;-40
2021/08/23 09:08:43;;;;;;;17.67;14.32;;;19.20;99.90;;;18.01;82.16;101874.13;2567068;30;138385;-41
2021/08/23 09:11:19;;;;;;;17.25;13.70;;;19.10;99.90;;;18.06;82.92;101874.31;2567974;30;137842;-41
2021/08/23 09:14:00;;;;;;;16.27;13.35;;;19.10;99.90;;;18.12;82.37;101876.09;2566749;30;137581;-41
2021/08/23 09:16:31;;;;;;;17.55;13.52;;;19.20;99.90;;;18.28;83.41;101882.00;2568811;30;138680;-41
2021/08/23 09:18:59;;;;;;;16.92;13.80;;;19.30;99.90;;;18.39;80.05;101883.94;2569132;30;137526;-40
2021/08/23 09:21:29;;;;;;;;;;;19.40;99.90;;;18.52;81.61;101885.63;2568141;30;137818;-41
2021/08/23 09:23:58;;;;;;;14.18;12.48;;;19.50;99.90;;;18.67;80.66;101891.47;2567912;30;138382;-41
2021/08/23 09:26:34;;;;;;;16.38;13.73;;;19.60;99.90;;;18.61;76.96;101875.03;2566696;30;137574;-41
2021/08/23 09:29:06;;;;;;;16.40;13.25;;;19.60;99.90;;;18.65;76.90;101892.81;2567144;30;138203;-40
2021/08/23 09:31:38;;;;;;;17.02;14.13;;;19.70;99.90;;;18.74;78.84;101883.06;2568670;30;138340;-41
2021/08/23 09:34:14;;;;;;;17.45;14.63;;;19.70;99.90;;;18.63;75.29;101895.00;2566225;30;138108;-41
2021/08/23 09:36:42;;;;;;;17.35;14.02;;;19.70;99.90;;;18.70;77.34;101898.47;2568131;30;139082;-40
2021/08/23 09:39:13;;;;;;;16.90;13.52;;;19.80;99.90;;;18.69;77.43;101902.31;2567843;30;137486;-41
2021/08/23 09:41:42;;;;;;;17.00;13.77;;;19.80;99.90;;;18.77;77.67;101904.69;2568806;30;137438;-42
2021/08/23 09:44:14;;;;;;;16.10;13.75;;;19.80;99.90;;;18.91;78.40;101905.28;2568816;30;136956;-40
2021/08/23 09:46:43;;;;;;;17.15;13.63;;;19.90;99.90;;;19.03;76.88;101910.00;2568258;30;136864;-41
2021/08/23 09:49:13;;;;;;;17.05;13.25;;;20.00;99.90;;;19.14;75.48;101914.66;2567080;30;137000;-41
2021/08/23 09:51:46;;;;;;;15.63;12.55;;;20.10;99.90;;;19.29;78.36;101905.84;2568712;30;137620;-41
2021/08/23 09:54:18;;;;;;;14.23;12.73;;;20.20;99.90;;;19.31;74.59;101905.59;2566893;30;137279;-40
2021/08/23 09:56:54;;;;;;;19.73;16.10;;;20.30;99.90;;;19.30;73.19;101907.50;2568034;30;138779;-41
2021/08/23 09:59:25;;;;;;;19.42;15.77;;;20.40;99.90;;;19.31;74.66;101903.66;2564489;30;137431;-41
2021/08/23 10:01:56;;;;;;;18.75;15.57;;;20.40;99.90;;;19.44;73.95;101908.06;2565916;30;138085;-41
2021/08/23 10:04:25;;;;;;;18.55;15.43;;;20.40;99.90;;;19.47;74.20;101910.34;2567799;30;136851;-40
2021/08/23 10:06:54;;;;;;;16.23;13.90;;;20.50;99.90;;;19.66;73.42;101913.78;2568834;30;138294;-41
2021/08/23 10:09:27;;;;;;;19.73;13.40;;;20.60;99.90;;;19.78;71.46;101915.63;2568054;30;137711;-41